createdAt,value
2018-10-09T00:04:51.522Z,14.87
2018-10-09T00:15:52.926Z,14.74
2018-10-09T00:26:53.712Z,14.57
2018-10-09T00:37:55.104Z,14.34
2018-10-09T00:48:56.742Z,14.16
2018-10-09T00:59:58.477Z,13.92
2018-10-09T01:11:00.050Z,13.77
2018-10-09T01:22:02.012Z,13.84
2018-10-09T01:33:03.932Z,13.65
2018-10-09T01:44:01.856Z,13.52
2018-10-09T01:55:04.246Z,13.28
2018-10-09T02:06:05.666Z,13.07
2018-10-09T02:17:07.228Z,12.96
2018-10-09T02:28:08.038Z,12.66
2018-10-09T02:39:08.875Z,12.53
2018-10-09T02:50:11.448Z,12.48
2018-10-09T03:01:09.696Z,12.41
2018-10-09T03:12:12.031Z,12.09
2018-10-09T03:23:07.395Z,11.98
2018-10-09T03:34:09.146Z,11.86
2018-10-09T03:45:11.083Z,11.90
2018-10-09T03:56:13.968Z,11.72
2018-10-09T04:07:16.607Z,11.65
2018-10-09T04:18:18.410Z,11.78
2018-10-09T04:29:18.906Z,11.95
2018-10-09T04:40:21.028Z,12.15
2018-10-09T04:51:18.802Z,12.31
2018-10-09T05:02:19.341Z,12.30
2018-10-09T05:13:21.095Z,12.30
2018-10-09T05:24:22.319Z,12.37
2018-10-09T05:35:22.305Z,12.42
2018-10-09T05:46:22.782Z,12.56
2018-10-09T05:57:22.486Z,12.64
2018-10-09T06:08:23.834Z,12.59
2018-10-09T06:19:18.606Z,12.67
2018-10-09T06:30:19.273Z,12.56
2018-10-09T06:41:19.360Z,12.78
2018-10-09T06:52:20.964Z,13.17
2018-10-09T07:03:16.508Z,13.58
2018-10-09T07:14:17.379Z,13.99
2018-10-09T07:25:19.087Z,14.41
2018-10-09T07:36:21.716Z,14.91
2018-10-09T07:47:20.838Z,15.15
2018-10-09T07:58:22.380Z,15.41
2018-10-09T08:09:23.029Z,15.70
2018-10-09T08:20:24.256Z,16.07
2018-10-09T08:31:26.003Z,16.48
2018-10-09T08:42:27.512Z,16.88
2018-10-09T08:53:24.085Z,17.28
2018-10-09T09:04:12.159Z,17.77
2018-10-09T09:15:14.762Z,18.04
2018-10-09T09:26:17.219Z,18.39
2018-10-09T09:37:15.177Z,18.95
2018-10-09T09:48:11.341Z,19.42
2018-10-09T09:59:08.100Z,20.09
2018-10-09T10:10:07.194Z,20.56
2018-10-09T10:21:06.885Z,21.08
2018-10-09T10:31:56.893Z,21.35
2018-10-09T10:42:48.718Z,21.08
2018-10-09T10:53:48.557Z,22.74
2018-10-09T11:04:49.477Z,22.59
2018-10-09T11:15:47.700Z,21.98
2018-10-09T11:26:46.499Z,22.52
2018-10-09T11:37:43.798Z,22.89
2018-10-09T11:48:43.144Z,23.22
2018-10-09T11:59:41.366Z,23.08
2018-10-09T12:10:41.956Z,23.23
2018-10-09T12:21:40.965Z,23.38
2018-10-09T12:32:34.172Z,23.56
2018-10-09T12:43:34.706Z,24.11
2018-10-09T12:54:20.912Z,23.93
2018-10-09T13:05:23.681Z,24.16
2018-10-09T13:16:28.860Z,24.25
2018-10-09T13:27:25.571Z,23.75
2018-10-09T13:38:25.274Z,22.60
2018-10-09T13:49:27.734Z,23.35
2018-10-09T14:00:27.480Z,23.05
2018-10-09T14:22:33.029Z,22.02
2018-10-09T14:33:33.693Z,21.92
2018-10-09T14:44:32.881Z,21.56
2018-10-09T14:55:34.138Z,21.26
2018-10-09T15:06:32.801Z,21.16
2018-10-09T15:17:33.446Z,20.49
2018-10-09T15:28:33.602Z,20.18
2018-10-09T15:39:34.301Z,20.15
2018-10-09T15:50:32.939Z,19.82
2018-10-09T16:01:30.459Z,19.60
2018-10-09T16:12:15.503Z,19.20
2018-10-09T16:23:15.566Z,18.87
2018-10-09T16:34:13.472Z,18.49
2018-10-09T16:45:09.440Z,17.88
2018-10-09T16:56:09.861Z,17.44
2018-10-09T17:07:09.536Z,16.81
2018-10-09T17:18:10.107Z,16.48
2018-10-09T17:29:06.573Z,16.38
2018-10-09T17:40:06.858Z,15.97
2018-10-09T17:51:15.760Z,15.68
2018-10-09T18:02:08.978Z,15.51
2018-10-09T18:13:08.355Z,15.20
2018-10-09T18:24:08.687Z,15.09
2018-10-09T18:35:05.088Z,14.87
2018-10-09T18:46:05.341Z,14.72
2018-10-09T18:57:02.097Z,14.54
2018-10-09T19:08:01.394Z,14.32
2018-10-09T19:19:01.220Z,14.19
2018-10-09T19:30:01.570Z,14.07
2018-10-09T19:41:02.206Z,13.92
2018-10-09T19:52:03.526Z,13.81
2018-10-09T20:02:58.963Z,13.66
2018-10-09T20:13:59.848Z,13.53
2018-10-09T20:24:58.093Z,13.50
2018-10-09T20:36:00.478Z,13.36
2018-10-09T20:47:02.471Z,13.22
2018-10-09T20:58:05.607Z,13.07
2018-10-09T21:09:06.078Z,12.97
2018-10-09T21:20:08.399Z,12.94
2018-10-09T21:31:09.756Z,12.77
2018-10-09T21:42:11.803Z,12.71
2018-10-09T21:53:12.804Z,12.64
2018-10-09T22:04:15.181Z,12.42
2018-10-09T22:15:13.848Z,12.34
2018-10-09T22:26:15.100Z,12.24
2018-10-09T22:37:16.615Z,12.28
2018-10-09T22:48:17.415Z,11.98
2018-10-09T22:59:18.865Z,12.03
2018-10-09T23:10:19.701Z,11.94
2018-10-09T23:21:21.916Z,11.83
2018-10-09T23:32:17.387Z,11.74
2018-10-09T23:43:19.128Z,11.69
2018-10-09T23:54:21.345Z,11.56
